createdAt,value
2023-01-17T09:33:00.126Z,95348.00
2023-01-17T09:49:48.527Z,95342.00
2023-01-17T09:52:21.456Z,95343.00
2023-01-17T09:54:50.987Z,95354.00
2023-01-17T10:01:00.964Z,95353.00
2023-01-17T10:04:38.287Z,95348.00
2023-01-17T10:07:46.505Z,95336.00
2023-01-17T10:15:11.830Z,95312.00
2023-01-17T10:18:29.954Z,95309.00
2023-01-17T10:22:04.367Z,95300.00
2023-01-17T10:25:13.089Z,95298.00
2023-01-17T10:28:18.404Z,95297.00
2023-01-17T10:31:04.893Z,95296.00
2023-01-17T10:33:50.059Z,95301.00
2023-01-17T10:36:36.076Z,95300.00
2023-01-17T10:39:28.846Z,95293.00
2023-01-17T10:42:29.148Z,95298.00
2023-01-17T10:48:46.014Z,95301.00
2023-01-17T10:52:11.355Z,95305.00
2023-01-17T10:55:37.384Z,95307.00
2023-01-17T10:58:05.078Z,95293.00
2023-01-17T11:07:32.661Z,95297.00
2023-01-17T11:10:00.116Z,95292.00
2023-01-17T11:20:54.077Z,95276.00
2023-01-17T11:23:34.164Z,95264.00
2023-01-17T11:26:07.549Z,95264.00
2023-01-17T11:28:40.618Z,95263.00
2023-01-17T11:31:27.168Z,95264.00
2023-01-17T11:34:31.990Z,95259.00
2023-01-17T11:37:20.597Z,95245.00
2023-01-17T11:39:48.220Z,95241.00
2023-01-17T11:42:37.932Z,95234.00
2023-01-17T11:45:32.825Z,95223.00
2023-01-17T11:48:13.694Z,95219.00
2023-01-17T11:50:58.727Z,95207.00
2023-01-17T11:53:36.990Z,95201.00
2023-01-17T11:56:36.643Z,95188.00
2023-01-17T11:59:43.256Z,95189.00
2023-01-17T12:02:52.012Z,95178.00
2023-01-17T12:06:13.936Z,95167.00
2023-01-17T12:09:22.883Z,95164.00
2023-01-17T12:12:51.405Z,95151.00
2023-01-17T12:16:32.072Z,95151.00
2023-01-17T12:19:32.616Z,95148.00
2023-01-17T12:23:05.577Z,95148.00
2023-01-17T12:26:23.959Z,95141.00
2023-01-17T12:29:58.823Z,95131.00
2023-01-17T12:33:19.319Z,95137.00
2023-01-17T12:35:59.615Z,95129.00
2023-01-17T12:38:39.051Z,95127.00
2023-01-17T12:41:37.444Z,95122.00
2023-01-17T12:44:05.467Z,95118.00
2023-01-17T12:46:49.089Z,95119.00
2023-01-17T12:50:06.613Z,95109.00
2023-01-17T12:53:24.342Z,95126.00
2023-01-17T12:56:27.364Z,95113.00
2023-01-17T13:00:10.391Z,95118.00
2023-01-17T13:03:20.328Z,95131.00
2023-01-17T13:05:48.787Z,95133.00
2023-01-17T13:08:43.723Z,95146.00
2023-01-17T13:11:30.479Z,95145.00
2023-01-17T13:13:59.882Z,95151.00
2023-01-17T14:25:15.620Z,95167.00
